This is the latest recevied weather packets stored in our database for station/object DK0GS-10. If no packets are shown the sender has not sent any weather packets the latest 10 day(s).
| Time | Temp. | Humidity | Pressure | Rain* | Wind** | Luminosity | Snow |
|---|---|---|---|---|---|---|---|
| 1777594547 | 6.67° C | 75% | 1028.3 hPa | 0 mm | - | - | - |
| 1777592722 | 6.67° C | 74% | 1028.5 hPa | 0 mm | - | - | - |
| 1777589122 | 6.67° C | 71% | 1028.3 hPa | 0 mm | - | - | - |
| 1777587322 | 7.78° C | 67% | 1028.4 hPa | 0 mm | - | - | - |
| 1777586786 | 7.78° C | 66% | 1028.4 hPa | 0 mm | - | - | - |
| 1777586136 | 8.33° C | 65% | 1028.6 hPa | 0 mm | - | - | - |
| 1777577721 | 11.11° C | 55% | 1028.3 hPa | 0 mm | - | - | - |
| 1777576521 | 12.22° C | 50% | 1028.4 hPa | 0 mm | - | - | - |
| 1777575935 | 12.78° C | 48% | 1028.3 hPa | 0 mm | - | - | - |
| 1777574123 | 14.44° C | 44% | 1028.1 hPa | 0 mm | - | - | - |
| 1777573522 | 14.44° C | 43% | 1028.1 hPa | 0 mm | - | - | - |
| 1777572935 | 15° C | 43% | 1028.1 hPa | 0 mm | - | - | - |
| 1777571121 | 15° C | 42% | 1027.9 hPa | 0 mm | - | - | - |
| 1777570521 | 15.56° C | 42% | 1027.9 hPa | 0 mm | - | - | - |
| 1777568121 | 15.56° C | 42% | 1027.8 hPa | 0 mm | - | - | - |
| 1777564537 | 16.11° C | 42% | 1027.7 hPa | 0 mm | - | - | - |
| 1777563337 | 16.67° C | 41% | 1027.8 hPa | 0 mm | - | - | - |
| 1777562137 | 16.67° C | 40% | 1028 hPa | 0 mm | - | - | - |
| 1777559138 | 17.22° C | 39% | 1028.1 hPa | 0 mm | - | - | - |
| 1777555523 | 17.22° C | 38% | 1028.6 hPa | 0 mm | - | - | - |
| 1777553123 | 17.22° C | 37% | 1029.1 hPa | 0 mm | - | - | - |
| 1777552523 | 17.22° C | 36% | 1029.1 hPa | 0 mm | - | - | - |
| 1777550723 | 16.67° C | 35% | 1029.5 hPa | 0 mm | - | - | - |
| 1777545948 | 15° C | 38% | 1030.2 hPa | 0 mm | - | - | - |
| 1777543536 | 13.89° C | 37% | 1030.5 hPa | 0 mm | - | - | - |
* Rain latest hour (hover to see other rain measurements)
** Current wind speed in m/s (hover to see current wind gust speed)